createdAt,value
2022-08-08T00:00:55.094Z,3.42
2022-08-08T00:02:04.024Z,3.45
2022-08-08T00:03:20.281Z,3.53
2022-08-08T00:04:57.842Z,3.28
2022-08-08T00:06:03.496Z,3.13
2022-08-08T00:06:56.786Z,3.28
2022-08-08T00:07:53.894Z,3.42
2022-08-08T00:08:57.767Z,3.50
2022-08-08T00:10:06.846Z,3.60
2022-08-08T00:11:15.773Z,3.39
2022-08-08T00:12:07.599Z,3.21
2022-08-08T00:14:15.128Z,2.97
2022-08-08T00:15:24.188Z,2.97
2022-08-08T00:17:47.898Z,3.17
2022-08-08T00:19:40.790Z,3.45
2022-08-08T00:20:52.765Z,3.47
2022-08-08T00:21:54.756Z,3.55
2022-08-08T00:23:00.749Z,3.49
2022-08-08T00:24:03.776Z,3.56
2022-08-08T00:25:05.811Z,3.50
2022-08-08T00:26:07.758Z,3.50
2022-08-08T00:27:10.756Z,3.31
2022-08-08T00:28:33.974Z,3.19
2022-08-08T00:29:46.451Z,3.17
2022-08-08T00:30:27.773Z,3.14
2022-08-08T00:32:21.474Z,3.24
2022-08-08T00:32:35.370Z,3.14
2022-08-08T00:33:24.816Z,3.24
2022-08-08T00:34:58.729Z,3.40
2022-08-08T00:36:15.050Z,3.39
2022-08-08T00:37:47.124Z,3.13
2022-08-08T00:38:59.855Z,3.08
2022-08-08T00:41:09.294Z,3.22
2022-08-08T00:42:33.390Z,3.24
2022-08-08T00:43:59.246Z,3.25
2022-08-08T00:45:21.789Z,3.26
2022-08-08T00:46:56.982Z,3.33
2022-08-08T00:48:29.340Z,3.22
2022-08-08T00:50:17.826Z,3.19
2022-08-08T00:51:38.999Z,3.34
2022-08-08T00:52:39.109Z,3.29
2022-08-08T00:53:57.178Z,3.09
2022-08-08T00:54:58.799Z,3.29
2022-08-08T00:56:03.708Z,3.31
2022-08-08T00:56:52.946Z,3.29
2022-08-08T00:58:32.730Z,3.28
2022-08-08T00:59:43.719Z,3.17
2022-08-08T01:00:42.713Z,3.34
2022-08-08T01:04:01.353Z,3.34
2022-08-08T01:04:02.645Z,3.38
2022-08-08T01:05:41.794Z,3.26
2022-08-08T01:07:54.085Z,3.36
2022-08-08T01:09:36.138Z,3.56
2022-08-08T01:11:21.743Z,3.22
2022-08-08T01:13:03.726Z,3.42
2022-08-08T01:14:57.197Z,3.39
2022-08-08T01:16:30.750Z,3.39
2022-08-08T01:17:51.405Z,3.46
2022-08-08T01:19:25.362Z,3.33
2022-08-08T01:21:26.330Z,3.17
2022-08-08T01:24:02.477Z,3.14
2022-08-08T01:24:44.010Z,3.24
2022-08-08T01:25:40.778Z,3.38
2022-08-08T01:27:07.116Z,3.56
2022-08-08T01:28:05.703Z,3.59
2022-08-08T01:29:23.880Z,3.70
2022-08-08T01:30:03.792Z,3.50
2022-08-08T01:32:14.650Z,3.51
2022-08-08T01:33:33.629Z,3.49
2022-08-08T01:34:52.715Z,3.39
2022-08-08T01:35:40.486Z,3.13
2022-08-08T01:36:52.703Z,3.08
2022-08-08T01:37:56.995Z,3.19
2022-08-08T01:39:23.169Z,3.20
2022-08-08T01:40:34.722Z,3.25
2022-08-08T01:41:44.670Z,3.08
2022-08-08T01:42:49.695Z,3.17
2022-08-08T01:44:09.680Z,3.01
2022-08-08T01:45:33.697Z,3.19
2022-08-08T01:46:47.671Z,3.09
2022-08-08T01:48:13.710Z,2.70
2022-08-08T01:49:22.966Z,2.94
2022-08-08T01:51:03.706Z,3.14
2022-08-08T01:54:33.740Z,2.99
2022-08-08T01:55:16.308Z,2.89
2022-08-08T01:56:30.302Z,3.05
2022-08-08T01:58:04.607Z,3.40
2022-08-08T01:58:46.472Z,3.10
2022-08-08T02:00:01.761Z,2.99
2022-08-08T02:01:21.781Z,3.03
2022-08-08T02:02:41.356Z,2.83
2022-08-08T02:03:54.895Z,2.75
2022-08-08T02:04:57.652Z,2.89
2022-08-08T02:05:59.075Z,2.84
2022-08-08T02:07:08.661Z,2.76
2022-08-08T02:08:34.021Z,2.95
2022-08-08T02:10:04.035Z,3.01
2022-08-08T02:11:58.695Z,3.08
2022-08-08T02:13:04.681Z,3.00
2022-08-08T02:14:22.677Z,3.09
2022-08-08T02:15:19.736Z,3.03
2022-08-08T02:16:34.719Z,2.86
2022-08-08T02:17:26.843Z,2.89
2022-08-08T02:18:41.654Z,2.91
2022-08-08T02:19:57.056Z,2.91
2022-08-08T02:21:40.658Z,2.89
2022-08-08T02:23:31.731Z,2.96
2022-08-08T02:24:44.332Z,2.90
2022-08-08T02:25:58.966Z,2.92
2022-08-08T02:27:24.633Z,2.79
2022-08-08T02:28:34.964Z,2.74
2022-08-08T02:29:52.792Z,2.91
2022-08-08T02:30:58.197Z,2.86
2022-08-08T02:32:40.632Z,2.79
2022-08-08T02:34:08.028Z,2.76
2022-08-08T02:36:03.704Z,2.85
2022-08-08T02:37:52.664Z,2.74
2022-08-08T02:39:01.096Z,2.75
2022-08-08T02:40:45.175Z,2.65
2022-08-08T02:42:38.296Z,2.84
2022-08-08T02:44:39.009Z,2.96
2022-08-08T02:46:36.640Z,2.79
2022-08-08T02:48:40.898Z,2.79
2022-08-08T02:50:12.502Z,2.92
2022-08-08T02:51:55.430Z,3.04
2022-08-08T02:52:53.009Z,2.86
2022-08-08T02:54:15.637Z,2.84
2022-08-08T02:55:20.783Z,2.89
2022-08-08T02:56:14.616Z,2.92
2022-08-08T02:57:40.643Z,3.03
2022-08-08T02:58:52.675Z,3.05
2022-08-08T03:00:32.095Z,3.16
2022-08-08T03:01:53.768Z,3.25
2022-08-08T03:03:16.709Z,3.24
2022-08-08T03:05:17.696Z,3.34
2022-08-08T03:06:24.105Z,3.10
2022-08-08T03:07:41.835Z,2.96
2022-08-08T03:09:07.637Z,2.78
2022-08-08T03:10:44.490Z,2.89
2022-08-08T03:12:13.944Z,3.14
2022-08-08T03:15:54.097Z,3.00
2022-08-08T03:16:00.661Z,3.05
2022-08-08T03:16:35.505Z,3.03
2022-08-08T03:17:59.799Z,3.05
2022-08-08T03:19:07.667Z,2.99
2022-08-08T03:20:19.650Z,2.89
2022-08-08T03:21:09.494Z,2.99
2022-08-08T03:21:58.704Z,3.04
2022-08-08T03:22:40.954Z,3.24
2022-08-08T03:23:23.835Z,3.11
2022-08-08T03:24:11.672Z,2.97
2022-08-08T03:24:58.598Z,3.11
2022-08-08T03:25:40.605Z,3.15
2022-08-08T03:26:14.677Z,3.17
2022-08-08T03:27:13.600Z,3.31
2022-08-08T03:28:06.601Z,3.30
2022-08-08T03:29:17.072Z,3.16
2022-08-08T03:30:10.626Z,3.04
2022-08-08T03:31:22.558Z,3.10
2022-08-08T03:32:14.417Z,3.11
2022-08-08T03:33:07.880Z,3.14
2022-08-08T03:34:06.594Z,3.22
2022-08-08T03:34:47.661Z,3.04
2022-08-08T03:35:24.269Z,3.14
2022-08-08T03:36:10.358Z,2.88
2022-08-08T03:36:49.674Z,2.83
2022-08-08T03:38:53.719Z,3.01
2022-08-08T03:38:57.250Z,2.80
2022-08-08T03:39:22.672Z,2.90
2022-08-08T03:40:28.858Z,3.16
2022-08-08T03:41:08.875Z,3.35
2022-08-08T03:42:27.630Z,3.21
2022-08-08T03:43:16.607Z,3.19
2022-08-08T03:44:10.561Z,3.08
2022-08-08T03:44:47.899Z,3.26
2022-08-08T03:46:05.675Z,3.26
2022-08-08T03:46:49.861Z,3.17
2022-08-08T03:47:45.233Z,3.03
2022-08-08T03:48:21.322Z,3.03
2022-08-08T03:50:00.464Z,3.06
2022-08-08T03:50:26.146Z,2.99
2022-08-08T03:50:59.634Z,3.08
2022-08-08T03:51:50.411Z,3.24
2022-08-08T03:52:34.084Z,3.21
2022-08-08T03:53:23.930Z,3.30
2022-08-08T03:54:15.738Z,3.35
2022-08-08T03:55:20.121Z,3.30
2022-08-08T03:56:31.683Z,3.42
2022-08-08T03:58:31.400Z,3.41
2022-08-08T03:58:35.043Z,3.44
2022-08-08T03:59:22.727Z,3.58
2022-08-08T04:00:07.635Z,3.55
2022-08-08T04:01:01.878Z,3.44
2022-08-08T04:02:31.621Z,3.55
2022-08-08T04:03:11.223Z,3.31
2022-08-08T04:03:58.835Z,3.17
2022-08-08T04:04:33.674Z,3.67
2022-08-08T04:05:10.156Z,3.79
2022-08-08T04:05:50.562Z,3.56
2022-08-08T04:06:24.665Z,3.53
2022-08-08T04:07:04.342Z,3.41
2022-08-08T04:07:47.565Z,3.50
2022-08-08T04:08:33.226Z,3.30
2022-08-08T04:09:15.578Z,3.35
2022-08-08T04:10:05.796Z,3.44
2022-08-08T04:10:46.546Z,3.46
2022-08-08T04:11:32.910Z,3.21
2022-08-08T04:12:28.632Z,3.16
2022-08-08T04:13:17.971Z,3.38
2022-08-08T04:14:03.842Z,3.72
2022-08-08T04:15:01.577Z,3.46
2022-08-08T04:15:38.844Z,3.44
2022-08-08T04:16:13.268Z,3.72
2022-08-08T04:16:58.550Z,3.60
2022-08-08T04:17:46.756Z,3.60
2022-08-08T04:18:26.338Z,3.79
2022-08-08T04:19:06.554Z,3.70
2022-08-08T04:19:58.707Z,3.63
2022-08-08T04:20:39.562Z,3.88
2022-08-08T04:21:23.129Z,3.53
2022-08-08T04:22:03.546Z,3.36
2022-08-08T04:22:43.606Z,3.64
2022-08-08T04:23:24.539Z,3.42
2022-08-08T04:24:28.140Z,3.28
2022-08-08T04:25:15.241Z,3.41
2022-08-08T04:26:06.951Z,3.67
2022-08-08T04:26:57.585Z,3.88
2022-08-08T04:28:34.965Z,3.95
2022-08-08T04:28:41.687Z,4.01
2022-08-08T04:29:33.366Z,3.89
2022-08-08T04:30:18.365Z,3.76
2022-08-08T04:31:07.552Z,4.13
2022-08-08T04:31:58.257Z,4.51
2022-08-08T04:32:49.809Z,4.60
2022-08-08T04:33:44.538Z,4.88
2022-08-08T04:34:43.022Z,4.89
2022-08-08T04:35:51.183Z,4.88
2022-08-08T04:36:33.557Z,4.56
2022-08-08T04:37:14.603Z,4.57
2022-08-08T04:37:54.546Z,4.69
2022-08-08T04:38:34.748Z,4.61
2022-08-08T04:40:03.668Z,4.70
2022-08-08T04:40:17.870Z,4.74
2022-08-08T04:40:57.579Z,4.66
2022-08-08T04:41:44.552Z,4.47
2022-08-08T04:42:46.697Z,4.68
2022-08-08T04:43:57.049Z,5.03
2022-08-08T04:44:51.545Z,4.71
2022-08-08T04:45:46.531Z,5.11
2022-08-08T04:46:40.524Z,5.32
2022-08-08T04:47:24.499Z,5.39
2022-08-08T04:48:05.594Z,5.57
2022-08-08T04:48:45.510Z,5.81
2022-08-08T04:49:58.526Z,6.11
2022-08-08T04:50:34.265Z,6.78
2022-08-08T04:51:28.012Z,7.55
2022-08-08T04:52:19.544Z,7.74
2022-08-08T04:53:13.877Z,7.14
2022-08-08T04:54:40.109Z,6.89
2022-08-08T04:55:06.645Z,6.76
2022-08-08T04:55:55.353Z,6.36
2022-08-08T04:56:44.498Z,5.72
2022-08-08T04:57:18.594Z,5.66
2022-08-08T04:58:10.854Z,5.55
2022-08-08T04:58:46.162Z,5.30
2022-08-08T04:59:41.969Z,5.39
2022-08-08T05:00:19.624Z,5.50
2022-08-08T05:01:11.004Z,5.13
2022-08-08T05:01:48.357Z,5.06
2022-08-08T05:02:35.751Z,4.85
2022-08-08T05:03:18.801Z,4.78
2022-08-08T05:04:30.529Z,4.66
2022-08-08T05:05:45.311Z,4.88
2022-08-08T05:06:39.071Z,4.89
2022-08-08T05:07:42.101Z,4.76
2022-08-08T05:08:36.585Z,5.07
2022-08-08T05:09:30.489Z,4.84
2022-08-08T05:10:30.536Z,5.01
2022-08-08T05:11:26.063Z,5.14
2022-08-08T05:12:21.355Z,4.88
2022-08-08T05:13:23.491Z,4.56
2022-08-08T05:14:06.530Z,4.84
2022-08-08T05:14:47.563Z,5.08
2022-08-08T05:16:47.502Z,5.14
2022-08-08T05:16:52.128Z,4.91
2022-08-08T05:17:54.003Z,5.00
2022-08-08T05:18:29.586Z,5.29
2022-08-08T05:19:09.516Z,5.31
2022-08-08T05:20:15.142Z,4.80
2022-08-08T05:20:56.487Z,5.00
2022-08-08T05:21:43.584Z,5.24
2022-08-08T05:22:36.488Z,5.13
2022-08-08T05:23:16.765Z,5.26
2022-08-08T05:24:08.538Z,5.10
2022-08-08T05:24:49.632Z,4.96
2022-08-08T05:25:25.684Z,4.99
2022-08-08T05:26:29.490Z,5.07
2022-08-08T05:27:03.698Z,4.93
2022-08-08T05:27:50.483Z,4.89
2022-08-08T05:28:48.092Z,4.82
2022-08-08T05:29:35.815Z,5.13
2022-08-08T05:30:28.242Z,5.07
2022-08-08T05:32:04.690Z,5.10
2022-08-08T05:32:36.951Z,5.10
2022-08-08T05:33:44.078Z,5.20
2022-08-08T05:34:54.482Z,5.05
2022-08-08T05:35:47.503Z,5.05
2022-08-08T05:36:32.557Z,5.20
2022-08-08T05:37:28.444Z,5.31
2022-08-08T05:38:30.421Z,5.28
2022-08-08T05:39:20.510Z,5.53
2022-08-08T05:39:59.573Z,5.36
2022-08-08T05:40:58.253Z,5.21
2022-08-08T05:41:33.547Z,5.49
2022-08-08T05:42:51.488Z,5.20
2022-08-08T05:43:40.110Z,5.19
2022-08-08T05:44:52.487Z,5.24
2022-08-08T05:45:41.450Z,5.47
2022-08-08T05:46:24.431Z,5.20
2022-08-08T05:47:05.559Z,5.00
2022-08-08T05:48:00.597Z,5.19
2022-08-08T05:48:41.936Z,5.55
2022-08-08T05:49:23.495Z,5.30
2022-08-08T05:50:07.608Z,5.40
2022-08-08T05:50:49.475Z,5.86
2022-08-08T05:51:48.102Z,5.71
2022-08-08T05:52:35.940Z,5.49
2022-08-08T05:54:25.543Z,5.56
2022-08-08T05:54:27.364Z,5.64
2022-08-08T05:55:27.451Z,5.71
2022-08-08T05:56:21.586Z,5.86
2022-08-08T05:57:04.738Z,6.04
2022-08-08T05:58:05.312Z,6.19
2022-08-08T05:58:57.007Z,6.39
2022-08-08T05:59:59.793Z,6.18
2022-08-08T06:00:44.320Z,5.91
2022-08-08T06:01:55.979Z,5.25
2022-08-08T06:02:53.592Z,5.00
2022-08-08T06:03:35.640Z,4.88
2022-08-08T06:04:23.788Z,4.82
2022-08-08T06:05:24.269Z,4.63
2022-08-08T06:06:12.463Z,4.29
2022-08-08T06:07:04.516Z,4.26
2022-08-08T06:07:48.444Z,4.29
2022-08-08T06:08:53.365Z,4.15
2022-08-08T06:09:59.881Z,3.90
2022-08-08T06:10:41.463Z,3.84
2022-08-08T06:11:16.633Z,3.75
2022-08-08T06:12:07.449Z,3.92
2022-08-08T06:12:42.509Z,4.79
2022-08-08T06:13:35.583Z,4.80
2022-08-08T06:14:23.480Z,4.80
2022-08-08T06:15:22.461Z,4.28
2022-08-08T06:16:30.382Z,4.03
2022-08-08T06:17:50.530Z,3.88
2022-08-08T06:18:40.490Z,3.60
2022-08-08T06:19:35.407Z,3.71
2022-08-08T06:20:32.432Z,3.81
2022-08-08T06:21:48.419Z,3.60
2022-08-08T06:22:42.453Z,3.55
2022-08-08T06:23:52.617Z,3.47
2022-08-08T06:24:51.457Z,3.47
2022-08-08T06:26:35.944Z,3.64
2022-08-08T06:27:23.515Z,3.59
2022-08-08T06:28:30.455Z,3.35
2022-08-08T06:29:56.819Z,3.22
2022-08-08T06:30:31.458Z,3.31
2022-08-08T06:31:15.495Z,3.13
2022-08-08T06:32:10.098Z,3.14
2022-08-08T06:33:01.340Z,3.09
2022-08-08T06:34:26.355Z,3.08
2022-08-08T06:36:07.432Z,3.04
2022-08-08T06:36:13.454Z,2.94
2022-08-08T06:36:57.848Z,3.09
2022-08-08T06:37:45.467Z,2.89
2022-08-08T06:38:35.935Z,2.76
2022-08-08T06:39:23.456Z,2.75
2022-08-08T06:40:21.433Z,2.70
2022-08-08T06:41:22.448Z,2.72
2022-08-08T06:42:16.449Z,2.51
2022-08-08T06:43:30.666Z,2.49
2022-08-08T06:44:31.438Z,2.81
2022-08-08T06:45:27.436Z,3.42
2022-08-08T06:46:23.877Z,3.01
2022-08-08T06:47:05.418Z,2.89
2022-08-08T06:47:52.410Z,2.58
2022-08-08T06:48:42.388Z,2.54
2022-08-08T06:49:56.723Z,2.59
2022-08-08T06:50:32.323Z,2.49
2022-08-08T06:51:14.527Z,2.39
2022-08-08T06:51:57.920Z,2.61
2022-08-08T06:52:42.993Z,2.36
2022-08-08T06:53:39.783Z,2.58
2022-08-08T06:54:20.481Z,2.59
2022-08-08T06:55:02.460Z,2.54
2022-08-08T06:55:47.316Z,2.78
2022-08-08T06:56:47.028Z,3.14
2022-08-08T06:57:44.483Z,2.86
2022-08-08T06:58:30.958Z,2.66
2022-08-08T06:59:20.415Z,2.59
2022-08-08T07:00:11.536Z,2.49
2022-08-08T07:01:00.429Z,2.64
2022-08-08T07:02:26.988Z,2.49
2022-08-08T07:03:00.544Z,2.65
2022-08-08T07:04:37.969Z,2.60
2022-08-08T07:05:24.963Z,2.49
2022-08-08T07:06:05.559Z,2.45
2022-08-08T07:07:10.464Z,2.55
2022-08-08T07:08:24.454Z,2.44
2022-08-08T07:09:41.709Z,2.33
2022-08-08T07:10:46.024Z,2.36
2022-08-08T07:11:46.221Z,2.50
2022-08-08T07:12:55.393Z,2.09
2022-08-08T07:14:00.576Z,1.85
2022-08-08T07:15:23.376Z,1.95
2022-08-08T07:16:34.481Z,1.94
2022-08-08T07:17:24.558Z,1.85
2022-08-08T07:19:14.428Z,1.96
2022-08-08T07:20:05.628Z,1.90
2022-08-08T07:20:55.406Z,1.76
2022-08-08T07:21:32.077Z,1.73
2022-08-08T07:22:24.809Z,1.70
2022-08-08T07:23:23.852Z,1.83
2022-08-08T07:24:35.408Z,1.64
2022-08-08T07:25:17.076Z,1.71
2022-08-08T07:26:10.391Z,1.70
2022-08-08T07:26:50.883Z,1.56
2022-08-08T07:28:02.008Z,1.70
2022-08-08T07:28:36.486Z,1.50
2022-08-08T07:30:02.378Z,1.58
2022-08-08T07:30:27.435Z,1.65
2022-08-08T07:31:21.508Z,1.35
2022-08-08T07:32:22.279Z,1.40
2022-08-08T07:33:21.385Z,1.38
2022-08-08T07:34:19.955Z,1.44
2022-08-08T07:35:01.552Z,1.49
2022-08-08T07:35:44.430Z,1.30
2022-08-08T07:36:19.723Z,1.41
2022-08-08T07:37:13.385Z,1.49
2022-08-08T07:38:04.830Z,1.45
2022-08-08T07:38:57.365Z,1.56
2022-08-08T07:39:45.810Z,1.38
2022-08-08T07:40:40.105Z,1.42
2022-08-08T07:41:25.003Z,1.20
2022-08-08T07:42:20.405Z,1.29
2022-08-08T07:43:37.291Z,1.40
2022-08-08T07:44:37.049Z,1.25
2022-08-08T07:45:51.469Z,1.30
2022-08-08T07:46:43.437Z,1.30
2022-08-08T07:47:17.436Z,1.20
2022-08-08T07:48:10.441Z,1.26
2022-08-08T07:48:46.445Z,1.24
2022-08-08T07:49:33.375Z,1.36
2022-08-08T07:50:08.496Z,1.20
2022-08-08T07:51:01.528Z,1.24
2022-08-08T07:51:53.187Z,1.21
2022-08-08T07:52:34.433Z,1.16
2022-08-08T07:54:01.870Z,1.10
2022-08-08T07:54:56.377Z,1.09
2022-08-08T07:55:38.440Z,1.06
2022-08-08T07:56:36.108Z,1.04
2022-08-08T07:57:48.175Z,1.23
2022-08-08T07:58:56.367Z,1.33
2022-08-08T08:00:18.380Z,1.25
2022-08-08T08:01:27.194Z,1.24
2022-08-08T08:03:05.394Z,1.23
2022-08-08T08:04:16.369Z,1.26
2022-08-08T08:05:15.687Z,1.34
2022-08-08T08:06:10.374Z,1.36
2022-08-08T08:07:04.381Z,1.39
2022-08-08T08:08:03.361Z,1.35
2022-08-08T08:08:58.382Z,1.30
2022-08-08T08:09:44.454Z,1.21
2022-08-08T08:10:30.021Z,1.30
2022-08-08T08:11:38.138Z,1.39
2022-08-08T08:12:31.564Z,1.30
2022-08-08T08:14:09.908Z,1.20
2022-08-08T08:15:15.217Z,1.23
2022-08-08T08:16:23.434Z,1.20
2022-08-08T08:17:17.335Z,1.20
2022-08-08T08:18:14.368Z,1.31
2022-08-08T08:19:16.421Z,1.36
2022-08-08T08:20:13.355Z,1.34
2022-08-08T08:21:13.390Z,1.34
2022-08-08T08:22:12.478Z,1.34
2022-08-08T08:23:09.338Z,1.44
2022-08-08T08:24:03.364Z,1.67
2022-08-08T08:24:46.493Z,1.39
2022-08-08T08:25:43.702Z,1.48
2022-08-08T08:26:28.579Z,1.51
2022-08-08T08:27:09.561Z,1.40
2022-08-08T08:27:50.352Z,1.36
2022-08-08T08:28:32.801Z,1.29
2022-08-08T08:29:16.625Z,1.16
2022-08-08T08:29:59.402Z,1.08
2022-08-08T08:30:35.369Z,1.06
2022-08-08T08:31:22.345Z,1.11
2022-08-08T08:31:58.295Z,1.16
2022-08-08T08:32:51.798Z,1.10
2022-08-08T08:33:26.474Z,1.14
2022-08-08T08:34:13.363Z,1.10
2022-08-08T08:34:50.129Z,0.98
2022-08-08T08:36:18.498Z,1.00
2022-08-08T08:36:31.395Z,1.10
2022-08-08T08:37:12.324Z,1.23
2022-08-08T08:38:16.218Z,1.08
2022-08-08T08:38:57.336Z,1.14
2022-08-08T08:40:00.440Z,1.09
2022-08-08T08:40:38.403Z,1.19
2022-08-08T08:41:23.914Z,1.04
2022-08-08T08:42:06.342Z,1.10
2022-08-08T08:42:49.433Z,1.13
2022-08-08T08:43:32.316Z,1.06
2022-08-08T08:44:15.491Z,1.00
2022-08-08T08:44:56.345Z,1.17
2022-08-08T08:45:45.367Z,1.14
2022-08-08T08:46:40.332Z,1.31
2022-08-08T08:47:43.885Z,1.06
2022-08-08T08:48:41.952Z,0.96
2022-08-08T08:49:43.342Z,0.94
2022-08-08T08:50:40.854Z,1.09
2022-08-08T08:51:23.335Z,1.04
2022-08-08T08:52:06.908Z,1.16
2022-08-08T08:52:59.934Z,1.19
2022-08-08T08:53:56.446Z,1.04
2022-08-08T08:54:42.321Z,1.00
2022-08-08T08:55:24.402Z,0.99
2022-08-08T08:56:10.317Z,1.02
2022-08-08T08:56:52.361Z,0.98
2022-08-08T08:57:26.398Z,0.86
2022-08-08T08:58:15.338Z,0.85
2022-08-08T08:58:51.436Z,0.86
2022-08-08T09:00:01.789Z,0.80
2022-08-08T09:01:02.937Z,0.86
2022-08-08T09:01:45.702Z,0.90
2022-08-08T09:02:34.349Z,0.98
2022-08-08T09:03:31.492Z,1.00
2022-08-08T09:04:50.266Z,0.98
2022-08-08T09:05:54.836Z,0.90
2022-08-08T09:06:55.315Z,0.85
2022-08-08T09:07:52.341Z,0.93
2022-08-08T09:09:39.701Z,0.93
2022-08-08T09:10:43.297Z,0.93
2022-08-08T09:11:46.975Z,1.01
2022-08-08T09:12:42.316Z,1.09
2022-08-08T09:13:28.210Z,0.84
2022-08-08T09:14:10.467Z,0.80
2022-08-08T09:14:51.540Z,0.85
2022-08-08T09:15:41.669Z,0.91
2022-08-08T09:16:24.300Z,0.91
2022-08-08T09:17:14.225Z,1.10
2022-08-08T09:17:58.596Z,0.94
2022-08-08T09:18:41.394Z,0.94
2022-08-08T09:19:25.297Z,1.01
2022-08-08T09:21:57.488Z,0.90
2022-08-08T09:22:02.790Z,0.90
2022-08-08T09:22:29.311Z,0.93
2022-08-08T09:23:03.435Z,0.96
2022-08-08T09:23:50.386Z,1.04
2022-08-08T09:24:24.425Z,1.00
2022-08-08T09:25:15.079Z,1.02
2022-08-08T09:26:12.538Z,1.08
2022-08-08T09:27:15.056Z,1.04
2022-08-08T09:28:02.504Z,0.90
2022-08-08T09:28:47.300Z,0.90
2022-08-08T09:29:30.320Z,0.93
2022-08-08T09:30:22.240Z,0.95
2022-08-08T09:31:12.598Z,0.82
2022-08-08T09:32:14.506Z,0.96
2022-08-08T09:33:54.346Z,1.02
2022-08-08T09:34:30.567Z,0.89
2022-08-08T09:35:05.181Z,0.93
2022-08-08T09:35:49.059Z,0.84
2022-08-08T09:36:28.747Z,0.80
2022-08-08T09:37:57.519Z,0.94
2022-08-08T09:38:17.800Z,0.98
2022-08-08T09:38:59.729Z,0.95
2022-08-08T09:40:15.462Z,0.91
2022-08-08T09:40:57.689Z,1.05
2022-08-08T09:42:14.582Z,0.85
2022-08-08T09:42:51.382Z,0.80
2022-08-08T09:43:41.182Z,0.84
2022-08-08T09:44:47.706Z,0.95
2022-08-08T09:46:01.268Z,0.94
2022-08-08T09:46:36.362Z,0.93
2022-08-08T09:47:25.872Z,0.96
2022-08-08T09:48:21.991Z,0.91
2022-08-08T09:49:41.006Z,0.80
2022-08-08T09:50:04.780Z,0.86
2022-08-08T09:50:50.133Z,0.82
2022-08-08T09:51:28.358Z,1.04
2022-08-08T09:52:06.806Z,0.93
2022-08-08T09:53:02.906Z,0.82
2022-08-08T09:54:08.435Z,0.96
2022-08-08T09:54:51.197Z,0.94
2022-08-08T09:56:04.384Z,1.06
2022-08-08T09:56:34.304Z,1.01
2022-08-08T09:57:19.436Z,0.96
2022-08-08T09:58:40.807Z,0.96
2022-08-08T10:00:01.682Z,0.94
2022-08-08T10:00:53.142Z,0.98
2022-08-08T10:01:58.514Z,0.98
2022-08-08T10:02:45.081Z,0.98
2022-08-08T10:03:25.347Z,0.85
2022-08-08T10:04:02.212Z,0.88
2022-08-08T10:04:47.901Z,0.94
2022-08-08T10:05:31.314Z,0.90
2022-08-08T10:06:17.738Z,0.93
2022-08-08T10:07:00.272Z,0.89
2022-08-08T10:07:44.966Z,0.88
2022-08-08T10:08:25.292Z,1.04
2022-08-08T10:09:10.337Z,0.99
2022-08-08T10:09:59.817Z,0.94
2022-08-08T10:10:50.105Z,0.91
2022-08-08T10:12:28.273Z,0.89
2022-08-08T10:12:54.318Z,0.82
2022-08-08T10:13:38.510Z,0.88
2022-08-08T10:14:28.159Z,0.94
2022-08-08T10:15:18.612Z,0.84
2022-08-08T10:16:03.796Z,0.94
2022-08-08T10:16:49.261Z,1.00
2022-08-08T10:17:57.529Z,0.94
2022-08-08T10:18:40.310Z,0.90
2022-08-08T10:19:21.344Z,0.88
2022-08-08T10:20:08.289Z,0.98
2022-08-08T10:21:00.520Z,1.00
2022-08-08T10:21:51.017Z,0.80
2022-08-08T10:22:34.308Z,0.76
2022-08-08T10:23:41.150Z,0.84
2022-08-08T10:24:29.255Z,0.95
2022-08-08T10:25:15.897Z,0.95
2022-08-08T10:25:57.661Z,0.96
2022-08-08T10:26:56.877Z,1.02
2022-08-08T10:27:49.241Z,1.10
2022-08-08T10:28:30.361Z,0.96
2022-08-08T10:29:22.872Z,0.89
2022-08-08T10:30:16.191Z,0.80
2022-08-08T10:31:46.753Z,0.79
2022-08-08T10:32:38.312Z,0.85
2022-08-08T10:33:20.253Z,0.96
2022-08-08T10:34:18.484Z,0.90
2022-08-08T10:35:02.062Z,0.84
2022-08-08T10:36:07.970Z,0.77
2022-08-08T10:36:38.401Z,0.80
2022-08-08T10:37:14.207Z,0.76
2022-08-08T10:38:21.275Z,0.76
2022-08-08T10:38:57.323Z,0.88
2022-08-08T10:39:54.427Z,0.82
2022-08-08T10:40:38.270Z,0.77
2022-08-08T10:41:20.223Z,0.80
2022-08-08T10:42:14.994Z,0.86
2022-08-08T10:43:10.359Z,0.96
2022-08-08T10:43:51.617Z,0.90
2022-08-08T10:44:52.246Z,0.86
2022-08-08T10:45:29.738Z,0.82
2022-08-08T10:46:39.270Z,0.90
2022-08-08T10:47:15.762Z,0.88
2022-08-08T10:48:13.269Z,0.98
2022-08-08T10:48:58.345Z,0.96
2022-08-08T10:50:01.659Z,0.91
2022-08-08T10:50:39.301Z,0.96
2022-08-08T10:51:31.439Z,0.84
2022-08-08T10:52:31.134Z,0.82
2022-08-08T10:53:16.308Z,0.84
2022-08-08T10:54:01.905Z,0.98
2022-08-08T10:54:42.292Z,0.96
2022-08-08T10:55:40.968Z,0.82
2022-08-08T10:56:27.062Z,0.96
2022-08-08T10:57:14.280Z,1.11
2022-08-08T10:57:56.289Z,1.19
2022-08-08T10:58:35.408Z,0.91
2022-08-08T10:59:14.015Z,0.93
2022-08-08T11:00:06.217Z,0.91
2022-08-08T11:00:52.695Z,0.89
2022-08-08T11:01:39.284Z,0.93
2022-08-08T11:02:20.351Z,0.96
2022-08-08T11:03:08.312Z,1.24
2022-08-08T11:04:01.250Z,1.73
2022-08-08T11:05:00.312Z,2.31
2022-08-08T11:06:00.933Z,1.31
2022-08-08T11:06:50.230Z,0.96
2022-08-08T11:08:31.904Z,0.96
2022-08-08T11:08:41.967Z,0.95
2022-08-08T11:09:21.809Z,0.94
2022-08-08T11:10:09.249Z,0.94
2022-08-08T11:10:50.230Z,0.94
2022-08-08T11:11:32.571Z,0.96
2022-08-08T11:12:18.979Z,0.90
2022-08-08T11:14:07.279Z,0.94
2022-08-08T11:14:59.876Z,1.13
2022-08-08T11:15:53.134Z,0.90
2022-08-08T11:16:36.644Z,0.93
2022-08-08T11:17:58.934Z,0.90
2022-08-08T11:18:18.454Z,0.85
2022-08-08T11:19:10.792Z,0.80
2022-08-08T11:19:52.918Z,0.88
2022-08-08T11:20:42.228Z,0.93
2022-08-08T11:21:35.342Z,0.79
2022-08-08T11:22:29.065Z,0.79
2022-08-08T11:23:05.732Z,0.80
2022-08-08T11:24:01.599Z,0.84
2022-08-08T11:24:52.397Z,0.88
2022-08-08T11:25:52.191Z,0.80
2022-08-08T11:26:34.197Z,0.90
2022-08-08T11:27:23.075Z,0.99
2022-08-08T11:28:06.245Z,0.82
2022-08-08T11:28:50.114Z,0.84
2022-08-08T11:29:51.018Z,0.80
2022-08-08T11:30:36.275Z,0.81
2022-08-08T11:31:15.272Z,0.93
2022-08-08T11:31:50.390Z,0.74
2022-08-08T11:32:37.205Z,0.77
2022-08-08T11:33:12.644Z,0.68
2022-08-08T11:34:01.337Z,0.88
2022-08-08T11:35:08.242Z,1.05
2022-08-08T11:35:49.755Z,0.84
2022-08-08T11:36:28.931Z,0.94
2022-08-08T11:37:17.217Z,0.85
2022-08-08T11:38:39.021Z,0.84
2022-08-08T11:39:20.278Z,0.81
2022-08-08T11:39:57.544Z,0.71
2022-08-08T11:40:51.202Z,0.81
2022-08-08T11:41:36.251Z,0.84
2022-08-08T11:42:18.080Z,0.86
2022-08-08T11:43:08.239Z,0.99
2022-08-08T11:43:51.257Z,0.97
2022-08-08T11:44:35.208Z,0.94
2022-08-08T11:45:18.601Z,1.00
2022-08-08T11:46:11.878Z,1.05
2022-08-08T11:46:57.899Z,1.06
2022-08-08T11:48:02.494Z,0.86
2022-08-08T11:48:40.278Z,0.88
2022-08-08T11:49:22.823Z,0.84
2022-08-08T11:50:10.056Z,0.91
2022-08-08T11:50:53.188Z,1.08
2022-08-08T11:51:40.161Z,0.86
2022-08-08T11:52:18.545Z,0.84
2022-08-08T11:53:06.030Z,0.86
2022-08-08T11:53:59.086Z,0.94
2022-08-08T11:54:44.872Z,0.93
2022-08-08T11:55:28.821Z,0.86
2022-08-08T11:56:10.190Z,0.95
2022-08-08T11:56:56.632Z,0.94
2022-08-08T11:57:35.381Z,1.00
2022-08-08T11:58:25.174Z,0.96
2022-08-08T11:59:11.832Z,0.96
2022-08-08T12:00:15.210Z,1.06
2022-08-08T12:00:56.342Z,1.06
2022-08-08T12:01:47.230Z,1.01
2022-08-08T12:02:41.162Z,0.98
2022-08-08T12:03:30.723Z,0.90
2022-08-08T12:04:16.199Z,0.88
2022-08-08T12:05:13.907Z,0.86
2022-08-08T12:05:55.189Z,0.94
2022-08-08T12:06:35.623Z,0.90
2022-08-08T12:07:20.209Z,0.94
2022-08-08T12:08:04.539Z,0.94
2022-08-08T12:08:41.771Z,0.93
2022-08-08T12:09:17.083Z,0.81
2022-08-08T12:10:02.854Z,0.88
2022-08-08T12:10:57.342Z,0.94
2022-08-08T12:11:41.392Z,0.94
2022-08-08T12:12:32.379Z,0.93
2022-08-08T12:13:38.136Z,0.96
2022-08-08T12:14:29.367Z,0.86
2022-08-08T12:15:21.198Z,0.86
2022-08-08T12:15:56.980Z,0.90
2022-08-08T12:16:47.297Z,0.80
2022-08-08T12:17:37.033Z,0.95
2022-08-08T12:18:41.173Z,0.90
2022-08-08T12:19:37.777Z,0.89
2022-08-08T12:20:38.181Z,0.91
2022-08-08T12:21:59.335Z,1.02
2022-08-08T12:22:47.298Z,0.98
2022-08-08T12:23:44.176Z,0.94
2022-08-08T12:24:56.226Z,0.82
2022-08-08T12:25:34.258Z,0.74
2022-08-08T12:26:27.862Z,0.88
2022-08-08T12:27:26.352Z,0.93
2022-08-08T12:28:32.242Z,0.90
2022-08-08T12:29:40.841Z,0.80
2022-08-08T12:30:38.181Z,0.76
2022-08-08T12:31:17.330Z,0.80
2022-08-08T12:32:23.492Z,0.90
2022-08-08T12:33:07.863Z,0.90
2022-08-08T12:34:02.463Z,0.95
2022-08-08T12:34:41.045Z,0.96
2022-08-08T12:35:30.164Z,0.91
2022-08-08T12:36:11.181Z,0.85
2022-08-08T12:36:46.533Z,0.88
2022-08-08T12:37:43.485Z,0.99
2022-08-08T12:38:50.198Z,0.91
2022-08-08T12:40:00.783Z,0.95
2022-08-08T12:40:55.934Z,0.93
2022-08-08T12:42:01.521Z,0.94
2022-08-08T12:42:34.983Z,0.84
2022-08-08T12:43:46.485Z,0.89
2022-08-08T12:44:37.148Z,0.96
2022-08-08T12:45:58.875Z,1.00